Time;durP1;ratioP1;P1;durP2;ratioP2;P2;SDS_P1;SDS_P2;PMS_P1;PMS_P2;Temp;Humidity;BMP_temperature;BMP_pressure;BME280_temperature;BME280_humidity;BME280_pressure;Samples;Min_cycle;Max_cycle;Signal;HPM_P1;HPM_P2
2023/09/09 00:02:14;;;;;;;5.50;3.10;;;;;;;27.83;32.29;101288.31;102583;1302;61510;-82
2023/09/09 00:04:40;;;;;;;4.60;2.60;;;;;;;27.82;32.30;101282.56;102681;1297;61415;-82
2023/09/09 00:07:11;;;;;;;5.60;2.50;;;;;;;27.82;32.60;101279.92;102627;1298;61397;-82
2023/09/09 00:09:38;;;;;;;5.90;2.70;;;;;;;27.83;32.46;101283.66;102651;1297;61434;-82
2023/09/09 00:12:05;;;;;;;4.40;2.30;;;;;;;27.82;32.47;101283.37;102636;1297;64012;-82
2023/09/09 00:14:31;;;;;;;5.90;2.80;;;;;;;27.82;32.44;101282.63;102532;1297;66026;-83
2023/09/09 00:16:57;;;;;;;5.20;2.60;;;;;;;27.82;32.37;101278.63;102592;1297;61403;-83
2023/09/09 00:19:24;;;;;;;5.00;2.50;;;;;;;27.81;32.40;101275.70;102593;1297;61279;-83
2023/09/09 00:21:49;;;;;;;5.00;2.60;;;;;;;27.81;32.39;101277.48;102650;1297;61366;-82
2023/09/09 00:24:16;;;;;;;5.20;2.70;;;;;;;27.81;32.47;101278.95;102644;1297;61973;-82
2023/09/09 00:26:42;;;;;;;5.10;2.70;;;;;;;27.82;32.41;101280.86;102849;1298;61532;-82
2023/09/09 00:29:08;;;;;;;6.70;2.50;;;;;;;27.81;32.53;101275.83;102520;1297;61308;-82
2023/09/09 00:31:33;;;;;;;5.10;2.70;;;;;;;27.81;32.36;101274.23;102709;1297;61319;-82
2023/09/09 00:33:59;;;;;;;4.60;2.40;;;;;;;27.81;32.54;101275.63;102678;1297;61349;-82
2023/09/09 00:36:25;;;;;;;4.40;2.60;;;;;;;27.81;32.59;101275.16;102659;1298;65664;-82
2023/09/09 00:38:51;;;;;;;4.00;2.60;;;;;;;27.80;32.52;101269.75;102699;1297;61303;-82
2023/09/09 00:41:17;;;;;;;5.80;2.30;;;;;;;27.81;32.55;101271.92;102753;1297;61795;-82
2023/09/09 00:43:45;;;;;;;4.10;2.60;;;;;;;27.80;32.47;101272.86;102654;1302;61437;-82
2023/09/09 00:46:11;;;;;;;4.80;2.50;;;;;;;27.80;32.25;101271.97;102602;1302;61338;-82
2023/09/09 00:48:37;;;;;;;4.40;2.50;;;;;;;27.80;32.44;101270.69;102656;1297;61656;-82
2023/09/09 00:51:04;;;;;;;5.00;2.70;;;;;;;27.80;32.44;101271.98;102640;1298;61344;-82
2023/09/09 00:53:30;;;;;;;6.50;2.80;;;;;;;27.80;32.43;101269.27;102744;1297;61569;-82
2023/09/09 00:55:56;;;;;;;4.60;2.50;;;;;;;27.80;32.44;101265.47;102709;1297;62127;-82
2023/09/09 00:58:23;;;;;;;5.50;2.60;;;;;;;27.80;32.45;101265.86;102583;1298;61414;-82
2023/09/09 01:00:48;;;;;;;5.40;2.50;;;;;;;27.79;32.57;101267.89;102546;1297;61407;-82
2023/09/09 01:03:14;;;;;;;4.40;2.40;;;;;;;27.79;32.49;101268.77;102598;1297;61262;-82
2023/09/09 01:05:40;;;;;;;4.40;2.60;;;;;;;27.80;32.48;101268.21;102533;1297;61402;-82
2023/09/09 01:08:05;;;;;;;5.00;2.70;;;;;;;27.80;32.46;101268.22;102691;1297;61910;-82
2023/09/09 01:10:31;;;;;;;5.10;2.70;;;;;;;27.80;32.52;101268.25;102631;1297;62114;-81
2023/09/09 01:12:56;;;;;;;5.40;2.70;;;;;;;27.79;32.45;101268.25;102646;1296;61402;-81
2023/09/09 01:15:22;;;;;;;4.90;2.80;;;;;;;27.79;32.46;101271.35;102577;1302;61400;-81
2023/09/09 01:17:48;;;;;;;5.60;2.60;;;;;;;27.79;32.48;101273.15;102616;1300;61522;-81
2023/09/09 01:20:14;;;;;;;4.30;2.40;;;;;;;27.79;32.46;101270.84;102629;1297;61371;-81
2023/09/09 01:22:48;;;;;;;6.20;2.70;;;;;;;27.78;32.38;101267.04;102750;1300;61414;-81
2023/09/09 01:25:14;;;;;;;7.20;2.70;;;;;;;27.78;32.55;101264.52;102612;1297;61281;-81
2023/09/09 01:27:41;;;;;;;4.50;2.40;;;;;;;27.78;32.46;101267.95;102542;1297;61742;-81
2023/09/09 01:30:08;;;;;;;5.40;2.60;;;;;;;27.78;32.54;101268.55;102734;1301;61296;-82
2023/09/09 01:32:34;;;;;;;4.40;2.50;;;;;;;27.78;32.37;101267.13;102621;1300;61414;-82
2023/09/09 01:35:04;;;;;;;4.30;2.50;;;;;;;27.78;32.24;101263.33;102665;1297;61401;-81
2023/09/09 01:37:31;;;;;;;4.00;2.50;;;;;;;27.77;32.23;101260.27;102658;1297;63621;-81
2023/09/09 01:39:56;;;;;;;6.60;2.50;;;;;;;27.77;32.40;101258.81;102704;1296;61475;-82
2023/09/09 01:42:22;;;;;;;4.00;2.50;;;;;;;27.78;32.53;101254.45;102709;1297;61430;-81
2023/09/09 01:44:47;;;;;;;5.20;2.60;;;;;;;27.77;32.43;101252.85;102626;1297;61412;-81
2023/09/09 01:47:16;;;;;;;4.50;2.60;;;;;;;27.78;32.51;101251.39;102615;1301;61393;-81
2023/09/09 01:49:43;;;;;;;4.50;2.60;;;;;;;27.77;32.52;101248.19;102615;1296;65753;-81
2023/09/09 01:52:08;;;;;;;6.00;2.50;;;;;;;27.77;32.22;101255.39;102657;1297;61383;-82
2023/09/09 01:54:34;;;;;;;4.00;2.30;;;;;;;27.77;32.33;101254.30;102611;1297;61492;-81
2023/09/09 01:57:00;;;;;;;4.70;2.60;;;;;;;27.77;32.42;101249.65;102572;1296;61282;-82
2023/09/09 01:59:26;;;;;;;5.00;2.50;;;;;;;27.76;32.22;101248.77;102566;1297;61330;-82
2023/09/09 02:01:53;;;;;;;4.10;2.60;;;;;;;27.77;32.28;101246.59;102628;1303;62272;-82
2023/09/09 02:04:18;;;;;;;4.80;2.70;;;;;;;27.76;32.21;101248.95;102625;1297;61389;-82
2023/09/09 02:06:44;;;;;;;5.10;2.70;;;;;;;27.76;32.45;101249.50;102659;1297;61504;-82
2023/09/09 02:09:10;;;;;;;4.20;2.40;;;;;;;27.76;32.55;101249.16;102640;1301;64140;-82
2023/09/09 02:11:35;;;;;;;5.00;2.40;;;;;;;27.76;32.53;101248.59;102581;1297;61440;-82
2023/09/09 02:14:02;;;;;;;5.20;2.80;;;;;;;27.76;32.64;101249.90;102623;1297;61416;-82
2023/09/09 02:16:28;;;;;;;7.10;2.50;;;;;;;27.75;32.63;101249.77;102628;1297;61498;-82
2023/09/09 02:18:53;;;;;;;5.10;2.20;;;;;;;27.75;32.56;101248.51;102629;1297;61366;-82
2023/09/09 02:21:21;;;;;;;5.00;2.70;;;;;;;27.75;32.53;101250.33;102649;1298;62480;-82
2023/09/09 02:23:46;;;;;;;5.30;2.60;;;;;;;27.75;32.36;101251.95;102595;1298;65870;-82
2023/09/09 02:26:13;;;;;;;4.60;2.40;;;;;;;27.76;32.52;101247.23;102618;1299;61535;-82
2023/09/09 02:28:38;;;;;;;4.80;2.40;;;;;;;27.75;32.38;101252.91;102715;1297;61411;-82
2023/09/09 02:31:04;;;;;;;4.10;2.30;;;;;;;27.75;32.41;101251.79;102598;1301;61406;-82
2023/09/09 02:33:29;;;;;;;5.60;2.70;;;;;;;27.74;32.36;101252.77;102575;1297;61428;-82
2023/09/09 02:35:59;;;;;;;4.80;2.50;;;;;;;27.75;32.28;101252.87;102710;1298;61522;-82
2023/09/09 02:38:25;;;;;;;4.10;2.50;;;;;;;27.75;32.39;101252.90;102688;1297;61229;-82
2023/09/09 02:40:50;;;;;;;4.30;2.30;;;;;;;27.75;32.37;101246.36;102542;1297;62165;-82
2023/09/09 02:43:16;;;;;;;4.10;2.40;;;;;;;27.75;32.36;101242.80;102629;1297;61372;-82
2023/09/09 02:45:41;;;;;;;4.20;2.70;;;;;;;27.74;32.44;101242.64;102610;1298;61418;-82
2023/09/09 02:48:07;;;;;;;5.30;2.40;;;;;;;27.74;32.44;101242.09;102680;1297;61529;-82
2023/09/09 02:50:35;;;;;;;4.70;2.50;;;;;;;27.74;32.37;101242.30;102642;1297;62066;-82
2023/09/09 02:53:01;;;;;;;4.20;2.50;;;;;;;27.74;32.27;101242.48;102803;1297;61794;-82
2023/09/09 02:55:27;;;;;;;3.80;2.50;;;;;;;27.74;32.44;101242.51;102691;1297;61360;-82
2023/09/09 02:57:52;;;;;;;4.90;2.40;;;;;;;27.74;32.48;101241.63;102524;1301;61403;-82
2023/09/09 03:00:18;;;;;;;4.20;2.40;;;;;;;27.74;32.34;101241.95;102539;1298;61500;-82
2023/09/09 03:02:44;;;;;;;4.80;2.50;;;;;;;27.74;32.33;101234.72;102587;1303;61361;-82
2023/09/09 03:05:10;;;;;;;4.60;2.40;;;;;;;27.73;32.39;101233.15;102505;1301;287714;-82
2023/09/09 03:07:36;;;;;;;4.30;2.50;;;;;;;27.72;32.25;101232.33;102622;1303;66969;-82
2023/09/09 03:10:02;;;;;;;6.60;2.50;;;;;;;27.73;32.31;101231.38;102706;1297;61455;-82
2023/09/09 03:12:28;;;;;;;4.60;2.40;;;;;;;27.73;32.31;101226.33;102632;1297;61437;-82
2023/09/09 03:14:54;;;;;;;5.30;2.70;;;;;;;27.73;32.54;101223.98;102562;1297;61408;-83
2023/09/09 03:17:20;;;;;;;3.90;2.20;;;;;;;27.72;32.31;101223.10;102569;1297;61306;-82
2023/09/09 03:19:46;;;;;;;5.40;2.60;;;;;;;27.73;32.28;101220.70;102711;1302;62081;-81
2023/09/09 03:22:11;;;;;;;4.30;2.30;;;;;;;27.73;32.46;101219.23;102630;1297;61304;-81
2023/09/09 03:24:37;;;;;;;3.60;2.20;;;;;;;27.73;32.37;101220.36;102764;1297;61405;-81
2023/09/09 03:27:02;;;;;;;4.90;2.40;;;;;;;27.72;32.31;101220.38;102666;1297;61403;-81
2023/09/09 03:29:28;;;;;;;3.50;2.20;;;;;;;27.72;32.55;101217.88;102603;1301;61421;-81
2023/09/09 03:31:54;;;;;;;4.60;2.60;;;;;;;27.72;32.30;101215.02;102618;1297;61397;-81
2023/09/09 03:34:19;;;;;;;4.10;2.40;;;;;;;27.72;32.40;101213.55;102639;1298;61386;-81
2023/09/09 03:36:45;;;;;;;5.00;2.70;;;;;;;27.72;32.33;101211.96;102702;1298;61994;-81
2023/09/09 03:39:10;;;;;;;4.30;2.50;;;;;;;27.72;32.45;101212.45;102756;1297;61367;-81
2023/09/09 03:41:38;;;;;;;4.40;2.40;;;;;;;27.72;32.41;101208.00;102754;1299;61357;-81
2023/09/09 03:44:04;;;;;;;4.60;2.40;;;;;;;27.71;32.54;101210.91;102703;1297;65827;-81
2023/09/09 03:46:29;;;;;;;4.50;2.40;;;;;;;27.71;32.53;101215.66;102801;1300;61438;-81
2023/09/09 03:48:55;;;;;;;5.00;2.70;;;;;;;27.71;32.41;101214.86;102610;1297;61430;-81
2023/09/09 03:51:20;;;;;;;4.30;2.20;;;;;;;27.71;32.41;101214.55;102624;1297;61420;-81
2023/09/09 03:53:46;;;;;;;4.20;2.60;;;;;;;27.72;32.42;101218.14;102594;1297;61393;-81
2023/09/09 03:56:11;;;;;;;4.10;2.30;;;;;;;27.72;32.19;101213.25;102639;1303;65812;-81
2023/09/09 03:58:37;;;;;;;3.60;2.40;;;;;;;27.71;32.27;101212.02;102556;1297;61418;-82
2023/09/09 04:01:04;;;;;;;4.30;2.50;;;;;;;27.71;32.35;101215.42;102676;1297;61476;-82
2023/09/09 04:03:33;;;;;;;5.70;2.30;;;;;;;27.70;32.28;101206.82;102654;1297;61307;-82
2023/09/09 04:06:04;;;;;;;4.00;2.40;;;;;;;27.71;32.19;101208.02;102614;1297;65820;-82
2023/09/09 04:08:30;;;;;;;4.80;2.80;;;;;;;27.71;32.27;101212.23;102507;1297;61409;-82
2023/09/09 04:10:56;;;;;;;4.70;2.90;;;;;;;27.71;32.12;101216.93;102708;1297;61386;-82
2023/09/09 04:13:21;;;;;;;4.60;2.40;;;;;;;27.71;32.23;101217.48;102521;1297;61392;-82
2023/09/09 04:15:47;;;;;;;4.00;2.50;;;;;;;27.71;32.47;101214.91;102679;1298;61434;-82
2023/09/09 04:18:13;;;;;;;4.30;2.40;;;;;;;27.70;32.15;101218.42;102593;1297;61981;-82
2023/09/09 04:20:39;;;;;;;5.70;2.90;;;;;;;27.71;32.35;101224.73;102621;1297;61504;-82
2023/09/09 04:23:05;;;;;;;4.50;2.80;;;;;;;27.71;32.31;101222.13;102755;1297;61479;-82
2023/09/09 04:25:30;;;;;;;5.20;2.60;;;;;;;27.71;32.25;101224.48;102687;1296;63718;-82
2023/09/09 04:27:56;;;;;;;3.80;2.30;;;;;;;27.71;32.20;101221.05;102642;1298;61384;-82
2023/09/09 04:30:21;;;;;;;4.70;2.40;;;;;;;27.72;32.12;101217.60;102596;1302;61380;-82
2023/09/09 04:32:47;;;;;;;3.90;2.30;;;;;;;27.71;32.33;101216.02;102671;1297;61795;-82
2023/09/09 04:35:13;;;;;;;4.00;2.50;;;;;;;27.71;32.34;101218.18;102660;1297;61592;-82
2023/09/09 04:37:38;;;;;;;3.90;2.50;;;;;;;27.71;32.34;101219.77;102574;1302;63971;-82
2023/09/09 04:40:05;;;;;;;4.40;2.50;;;;;;;27.71;32.21;101222.14;102644;1297;61350;-82
2023/09/09 04:42:32;;;;;;;3.90;2.40;;;;;;;27.71;32.23;101219.08;102738;1297;61350;-81
2023/09/09 04:44:59;;;;;;;4.70;2.30;;;;;;;27.72;32.35;101215.97;102641;1297;61313;-82
2023/09/09 04:47:24;;;;;;;3.90;2.30;;;;;;;27.71;32.29;101220.30;102639;1297;61745;-82
2023/09/09 04:49:50;;;;;;;4.90;2.50;;;;;;;27.71;32.18;101222.48;102606;1303;61303;-82
2023/09/09 04:52:16;;;;;;;3.70;2.20;;;;;;;27.71;32.24;101221.05;102704;1296;61357;-82
2023/09/09 04:54:42;;;;;;;5.00;2.60;;;;;;;27.72;32.41;101222.44;102691;1297;61469;-82
2023/09/09 04:57:09;;;;;;;3.80;2.40;;;;;;;27.72;32.41;101226.78;102584;1303;61406;-82
2023/09/09 04:59:34;;;;;;;4.60;2.50;;;;;;;27.72;32.24;101227.49;102639;1297;62085;-82
2023/09/09 05:02:00;;;;;;;4.90;2.40;;;;;;;27.71;32.37;101224.26;102671;1297;61458;-82
2023/09/09 05:04:26;;;;;;;4.20;2.30;;;;;;;27.72;32.36;101227.33;102657;1300;61587;-82
2023/09/09 05:06:53;;;;;;;6.00;2.50;;;;;;;27.72;32.47;101225.90;102650;1297;61394;-82
2023/09/09 05:09:19;;;;;;;4.50;2.30;;;;;;;27.72;32.51;101223.73;102573;1298;64091;-82
2023/09/09 05:11:45;;;;;;;4.60;2.70;;;;;;;27.72;32.61;101224.61;102653;1301;61752;-82
2023/09/09 05:14:11;;;;;;;4.10;2.50;;;;;;;27.72;32.42;101227.48;102649;1297;61431;-82
2023/09/09 05:16:37;;;;;;;4.30;2.40;;;;;;;27.72;32.50;101224.92;102623;1302;61948;-82
2023/09/09 05:19:03;;;;;;;4.30;2.30;;;;;;;27.72;32.31;101222.60;102575;1297;62406;-82
2023/09/09 05:21:28;;;;;;;5.20;2.40;;;;;;;27.72;32.59;101223.16;102551;1300;61335;-82
2023/09/09 05:23:54;;;;;;;5.50;2.60;;;;;;;27.73;32.62;101222.73;102745;1298;61459;-82
2023/09/09 05:26:20;;;;;;;4.80;2.60;;;;;;;27.72;32.53;101222.23;102649;1297;61687;-82
2023/09/09 05:28:47;;;;;;;4.40;2.50;;;;;;;27.72;32.60;101222.23;102616;1296;61284;-82
2023/09/09 05:31:13;;;;;;;4.50;2.40;;;;;;;27.72;32.58;101221.33;102555;1303;61312;-82
2023/09/09 05:33:39;;;;;;;3.70;2.30;;;;;;;27.72;32.69;101221.84;102623;1297;63762;-82
2023/09/09 05:36:05;;;;;;;4.90;2.50;;;;;;;27.73;32.70;101225.07;102699;1297;61356;-82
2023/09/09 05:38:30;;;;;;;4.70;2.50;;;;;;;27.73;32.89;101230.30;102639;1297;61782;-82
2023/09/09 05:40:56;;;;;;;4.50;2.20;;;;;;;27.73;32.90;101233.87;102592;1297;62161;-82
2023/09/09 05:43:21;;;;;;;5.10;2.40;;;;;;;27.74;32.88;101231.13;102656;1298;63814;-82
2023/09/09 05:45:47;;;;;;;3.60;2.30;;;;;;;27.73;32.92;101230.61;102560;1297;61428;-82
2023/09/09 05:48:13;;;;;;;5.30;2.10;;;;;;;27.74;32.99;101228.25;102623;1298;61493;-82
2023/09/09 05:50:38;;;;;;;5.90;2.50;;;;;;;27.74;32.79;101231.98;102676;1297;61412;-82
2023/09/09 05:53:04;;;;;;;3.90;2.20;;;;;;;27.75;32.76;101230.98;102596;1297;61422;-82
2023/09/09 05:55:29;;;;;;;6.70;2.60;;;;;;;27.75;32.76;101232.02;102647;1297;64901;-82
2023/09/09 05:57:55;;;;;;;7.40;2.50;;;;;;;27.77;32.66;101236.79;102666;1302;61376;-82
2023/09/09 06:00:20;;;;;;;4.40;2.40;;;;;;;27.77;32.95;101234.80;102567;1298;61414;-82
2023/09/09 06:02:46;;;;;;;4.50;2.50;;;;;;;27.79;32.94;101236.29;102512;1297;62069;-82
2023/09/09 06:05:13;;;;;;;5.90;2.70;;;;;;;27.79;32.94;101240.40;102655;1303;61588;-82
2023/09/09 06:07:40;;;;;;;4.30;2.40;;;;;;;27.81;32.92;101239.16;102625;1297;63867;-83
2023/09/09 06:10:06;;;;;;;4.50;2.20;;;;;;;27.82;32.95;101240.91;102657;1296;61389;-83
2023/09/09 06:12:31;;;;;;;4.20;2.30;;;;;;;27.82;32.96;101244.45;102701;1297;61389;-83
2023/09/09 06:14:57;;;;;;;3.40;2.30;;;;;;;27.83;33.01;101242.40;102580;1297;61418;-83
2023/09/09 06:17:22;;;;;;;4.00;2.60;;;;;;;27.84;33.01;101242.67;102691;1297;61519;-81
2023/09/09 06:19:48;;;;;;;4.80;2.30;;;;;;;27.85;33.08;101246.02;102625;1297;61408;-83
2023/09/09 06:22:14;;;;;;;3.70;2.30;;;;;;;27.85;33.11;101246.73;102564;1298;65839;-82
2023/09/09 06:24:39;;;;;;;4.30;2.40;;;;;;;27.86;33.12;101244.27;102608;1297;62143;-82
2023/09/09 06:27:05;;;;;;;4.20;2.60;;;;;;;27.86;33.13;101243.54;102733;1297;61371;-82
2023/09/09 06:29:30;;;;;;;4.70;2.30;;;;;;;27.87;33.25;101242.59;102615;1297;61393;-82
2023/09/09 06:31:57;;;;;;;5.00;2.20;;;;;;;27.87;33.15;101245.77;102747;1303;61302;-82
2023/09/09 06:34:23;;;;;;;4.30;2.40;;;;;;;27.89;33.08;101248.90;102715;1297;65805;-83
2023/09/09 06:36:49;;;;;;;4.30;2.40;;;;;;;27.89;33.34;101248.67;102640;1301;61409;-82
2023/09/09 06:39:15;;;;;;;4.60;2.50;;;;;;;27.90;33.30;101252.23;102560;1303;61640;-82
2023/09/09 06:41:41;;;;;;;4.70;2.50;;;;;;;27.91;33.35;101257.38;102606;1297;61421;-82
2023/09/09 06:44:07;;;;;;;4.80;2.30;;;;;;;27.91;33.24;101260.27;102701;1297;61288;-82
2023/09/09 06:46:33;;;;;;;3.90;2.30;;;;;;;27.92;33.22;101261.46;102724;1297;61502;-82
2023/09/09 06:48:58;;;;;;;3.80;2.20;;;;;;;27.92;33.48;101259.06;102775;1296;61398;-82
2023/09/09 06:51:25;;;;;;;4.00;2.20;;;;;;;27.93;33.56;101260.62;102703;1297;61476;-82
2023/09/09 06:53:51;;;;;;;4.80;2.40;;;;;;;27.94;33.26;101266.01;102789;1300;64665;-82
2023/09/09 06:56:16;;;;;;;3.70;2.30;;;;;;;27.94;33.49;101267.00;102710;1297;61714;-83
2023/09/09 06:58:42;;;;;;;5.50;2.50;;;;;;;27.95;33.32;101266.60;102610;1298;61462;-82
2023/09/09 07:01:07;;;;;;;4.00;2.30;;;;;;;27.96;33.49;101263.66;102688;1297;61386;-83
2023/09/09 07:03:33;;;;;;;4.00;2.40;;;;;;;27.96;33.50;101265.93;102836;1297;61351;-83
2023/09/09 07:06:00;;;;;;;3.60;2.10;;;;;;;27.97;33.56;101267.70;102627;1298;63707;-83
2023/09/09 07:08:28;;;;;;;4.80;2.40;;;;;;;27.97;33.60;101267.83;102649;1302;61475;-83
2023/09/09 07:10:54;;;;;;;4.70;2.40;;;;;;;27.98;33.31;101266.88;102612;1297;61310;-83
2023/09/09 07:13:21;;;;;;;3.90;2.50;;;;;;;27.98;33.40;101269.40;102836;1297;61487;-83
2023/09/09 07:15:46;;;;;;;4.10;2.30;;;;;;;27.98;33.56;101265.63;102676;1302;63857;-83
2023/09/09 07:18:12;;;;;;;3.80;2.40;;;;;;;27.99;33.45;101267.29;102669;1297;61368;-83
2023/09/09 07:20:38;;;;;;;4.50;2.50;;;;;;;27.99;33.52;101267.83;102711;1297;61410;-82
2023/09/09 07:23:04;;;;;;;4.40;2.10;;;;;;;27.99;33.60;101269.64;102660;1297;61306;-83
2023/09/09 07:25:30;;;;;;;4.00;2.40;;;;;;;28.00;33.43;101263.94;102649;1302;61415;-83
2023/09/09 07:27:55;;;;;;;4.60;2.40;;;;;;;28.00;33.55;101267.41;102763;1297;61901;-83
2023/09/09 07:30:21;;;;;;;5.20;2.30;;;;;;;28.01;33.43;101264.11;102642;1298;64526;-82
2023/09/09 07:32:47;;;;;;;4.30;2.30;;;;;;;28.01;33.43;101265.13;102655;1301;61431;-83
2023/09/09 07:35:12;;;;;;;4.20;2.10;;;;;;;28.01;33.47;101262.80;102652;1298;61396;-82
2023/09/09 07:37:38;;;;;;;3.60;2.30;;;;;;;28.01;33.65;101260.65;102719;1302;61723;-83
2023/09/09 07:40:04;;;;;;;3.80;2.20;;;;;;;28.02;33.67;101258.39;102569;1303;61312;-83
2023/09/09 07:42:30;;;;;;;3.80;2.30;;;;;;;28.02;33.74;101256.59;102792;1298;65691;-82
2023/09/09 07:44:55;;;;;;;3.60;2.20;;;;;;;28.02;33.70;101256.73;102756;1297;61469;-83
2023/09/09 07:47:21;;;;;;;3.80;2.30;;;;;;;28.02;33.67;101256.18;102670;1297;61579;-83
2023/09/09 07:49:47;;;;;;;3.90;2.10;;;;;;;28.02;33.62;101254.91;102574;1297;61412;-83
2023/09/09 07:52:13;;;;;;;3.60;2.50;;;;;;;28.02;33.75;101256.16;102671;1302;61498;-83
2023/09/09 07:54:38;;;;;;;4.50;2.30;;;;;;;28.03;33.72;101253.80;102794;1297;61414;-83
2023/09/09 07:57:04;;;;;;;5.00;2.40;;;;;;;28.02;33.65;101249.48;102694;1297;61309;-83
2023/09/09 07:59:29;;;;;;;4.00;2.30;;;;;;;28.03;33.68;101249.63;102653;1298;61913;-83
2023/09/09 08:01:55;;;;;;;5.10;2.50;;;;;;;28.02;33.90;101244.40;102679;1302;62424;-82
2023/09/09 08:04:21;;;;;;;3.70;2.20;;;;;;;28.02;33.87;101240.27;102726;1297;61498;-83
2023/09/09 08:06:46;;;;;;;5.20;2.40;;;;;;;28.03;33.77;101240.23;102632;1297;61506;-83
2023/09/09 08:09:13;;;;;;;5.10;2.20;;;;;;;28.03;33.83;101233.70;102762;1297;61439;-82
2023/09/09 08:11:38;;;;;;;3.90;2.20;;;;;;;28.02;33.64;101233.01;102610;1297;61385;-83
2023/09/09 08:14:04;;;;;;;3.70;2.20;;;;;;;28.02;33.67;101235.02;102690;1297;61410;-82
2023/09/09 08:16:30;;;;;;;4.20;2.30;;;;;;;28.02;33.71;101236.11;102733;1298;61381;-83
2023/09/09 08:18:58;;;;;;;3.80;2.30;;;;;;;28.02;33.79;101234.68;102613;1297;61428;-83
2023/09/09 08:21:23;;;;;;;5.60;2.60;;;;;;;28.03;33.73;101234.98;102690;1297;61418;-83
2023/09/09 08:23:49;;;;;;;4.40;2.40;;;;;;;28.02;33.93;101229.95;102650;1303;61440;-83
2023/09/09 08:26:14;;;;;;;3.80;2.30;;;;;;;28.02;34.05;101234.52;102602;1301;61367;-83
2023/09/09 08:28:40;;;;;;;3.30;2.10;;;;;;;28.02;34.09;101234.29;102653;1302;62063;-82
2023/09/09 08:31:06;;;;;;;4.10;2.50;;;;;;;28.02;33.88;101232.63;102702;1299;61491;-83
2023/09/09 08:33:31;;;;;;;4.40;2.40;;;;;;;28.02;33.71;101232.86;102732;1297;61419;-83
2023/09/09 08:36:05;;;;;;;4.00;2.30;;;;;;;28.01;34.07;101226.77;102646;1303;61352;-82
2023/09/09 08:38:32;;;;;;;4.00;2.20;;;;;;;28.01;33.86;101223.89;102891;1297;65863;-82
2023/09/09 08:41:16;;;;;;;3.90;2.20;;;;;;;28.02;33.92;101221.65;102718;1297;61458;-82
2023/09/09 08:43:51;;;;;;;4.70;2.20;;;;;;;28.01;33.87;101225.31;102652;1297;61434;-83
2023/09/09 08:46:17;;;;;;;4.50;2.70;;;;;;;28.01;33.95;101219.52;102767;1303;63861;-83
2023/09/09 08:48:43;;;;;;;4.80;2.40;;;;;;;28.01;33.82;101224.05;102718;1297;61407;-83
2023/09/09 08:51:22;;;;;;;4.00;2.30;;;;;;;28.01;33.96;101218.44;102706;1297;61772;-83
2023/09/09 08:53:47;;;;;;;5.10;2.50;;;;;;;28.01;33.85;101213.02;102754;1298;61906;-82
2023/09/09 08:56:13;;;;;;;3.60;2.10;;;;;;;28.01;34.02;101208.68;102748;1302;61418;-82
2023/09/09 08:58:40;;;;;;;3.90;2.40;;;;;;;28.01;34.03;101203.29;102699;1296;63111;-83
2023/09/09 09:01:06;;;;;;;3.70;2.30;;;;;;;28.01;33.91;101199.13;102679;1297;61335;-83
2023/09/09 09:03:32;;;;;;;4.10;2.60;;;;;;;28.01;34.16;101202.70;102721;1297;61401;-83
2023/09/09 09:05:58;;;;;;;3.90;2.20;;;;;;;28.02;34.06;101200.69;102643;1301;61377;-83
2023/09/09 09:08:23;;;;;;;3.70;2.10;;;;;;;28.02;34.06;101196.55;102629;1301;61519;-83
2023/09/09 09:10:49;;;;;;;3.90;2.30;;;;;;;28.01;34.10;101201.44;102642;1302;61491;-83
2023/09/09 09:13:15;;;;;;;3.80;2.20;;;;;;;28.01;33.97;101201.82;102776;1298;61739;-83
2023/09/09 09:15:41;;;;;;;3.90;2.40;;;;;;;28.01;34.03;101206.14;102687;1296;61410;-83
2023/09/09 09:18:08;;;;;;;3.70;2.30;;;;;;;28.01;34.14;101207.23;102754;1298;63836;-83
2023/09/09 09:20:34;;;;;;;4.40;2.10;;;;;;;28.01;33.98;101203.80;102653;1297;65617;-83
2023/09/09 09:23:02;;;;;;;4.30;2.30;;;;;;;28.01;33.99;101199.27;102674;1301;62704;-83
2023/09/09 09:25:28;;;;;;;3.90;2.20;;;;;;;28.01;33.88;101198.75;102814;1297;61327;-83
2023/09/09 09:27:57;;;;;;;4.60;2.20;;;;;;;28.01;33.98;101194.41;102763;1296;61408;-83
2023/09/09 09:30:23;;;;;;;4.30;2.20;;;;;;;28.01;33.99;101192.98;102684;1298;65806;-83
2023/09/09 09:32:54;;;;;;;3.70;2.00;;;;;;;28.01;33.96;101189.20;102713;1298;61401;-83
2023/09/09 09:35:28;;;;;;;3.30;2.10;;;;;;;28.00;33.97;101187.23;102688;1298;61433;-83
2023/09/09 09:38:09;;;;;;;3.80;2.20;;;;;;;28.01;33.85;101188.66;102720;1297;63786;-83
2023/09/09 09:40:35;;;;;;;3.90;2.20;;;;;;;28.00;34.13;101193.04;102737;1297;65684;-83
2023/09/09 09:43:01;;;;;;;4.10;2.50;;;;;;;28.00;33.99;101189.61;102666;1300;61434;-83
2023/09/09 09:45:28;;;;;;;3.70;2.30;;;;;;;28.00;34.14;101189.58;102729;1298;61569;-82
2023/09/09 09:47:54;;;;;;;3.70;2.20;;;;;;;28.00;34.01;101185.26;102745;1297;61384;-83
2023/09/09 09:50:30;;;;;;;3.90;2.00;;;;;;;28.00;34.14;101182.58;102760;1300;61493;-83
2023/09/09 09:53:01;;;;;;;4.20;2.30;;;;;;;28.00;34.22;101183.14;102759;1297;61366;-83
2023/09/09 09:55:27;;;;;;;4.40;2.30;;;;;;;28.00;34.15;101181.48;102698;1298;61413;-83
2023/09/09 09:57:55;;;;;;;3.60;2.30;;;;;;;28.00;34.15;101174.07;102738;1295;61406;-83
2023/09/09 10:00:22;;;;;;;3.80;2.50;;;;;;;28.00;34.06;101168.07;102749;1298;65802;-83
2023/09/09 10:02:50;;;;;;;4.90;2.40;;;;;;;28.00;34.01;101164.86;102719;1297;61315;-83
2023/09/09 10:05:16;;;;;;;3.50;2.20;;;;;;;28.00;34.06;101159.98;102717;1297;61396;-83
2023/09/09 10:07:44;;;;;;;4.40;2.20;;;;;;;28.00;33.98;101161.40;102618;1300;61401;-83
2023/09/09 10:10:10;;;;;;;4.60;2.20;;;;;;;27.99;34.10;101162.73;102727;1298;65858;-83
2023/09/09 10:12:53;;;;;;;4.20;2.20;;;;;;;27.99;34.06;101157.85;102739;1297;61389;-83
2023/09/09 10:15:20;;;;;;;4.00;2.30;;;;;;;27.99;34.15;101157.69;102734;1298;61735;-83
2023/09/09 10:17:45;;;;;;;3.70;2.10;;;;;;;27.99;33.96;101155.15;102704;1296;64036;-82
2023/09/09 10:20:12;;;;;;;3.40;2.20;;;;;;;27.99;34.01;101150.12;102676;1297;61333;-83
2023/09/09 10:22:41;;;;;;;4.00;2.10;;;;;;;27.99;34.01;101147.38;102770;1296;61460;-83
2023/09/09 10:25:10;;;;;;;3.50;2.10;;;;;;;27.99;34.12;101145.21;102679;1296;62138;-83
2023/09/09 10:27:37;;;;;;;3.60;2.40;;;;;;;27.99;34.09;101145.98;102823;1297;63967;-82
2023/09/09 10:30:03;;;;;;;3.30;2.00;;;;;;;27.99;34.08;101142.16;103200;1297;65866;-82
2023/09/09 10:32:28;;;;;;;4.30;2.50;;;;;;;27.99;34.08;101144.14;102913;1300;61508;-82
2023/09/09 10:34:54;;;;;;;3.30;2.30;;;;;;;27.99;34.00;101141.62;102941;1297;61453;-83
2023/09/09 10:37:20;;;;;;;4.10;2.20;;;;;;;27.99;33.99;101135.98;102896;1303;61468;-82
2023/09/09 10:39:47;;;;;;;4.10;2.20;;;;;;;27.99;34.06;101136.86;102753;1298;61462;-83
2023/09/09 10:42:15;;;;;;;3.90;2.20;;;;;;;27.99;34.16;101137.98;102820;1296;62584;-82
2023/09/09 10:44:40;;;;;;;4.50;2.30;;;;;;;27.98;34.16;101134.95;102759;1297;61799;-83
2023/09/09 10:47:09;;;;;;;3.40;2.10;;;;;;;27.98;33.91;101130.42;102837;1297;61342;-82
2023/09/09 10:49:34;;;;;;;4.90;2.10;;;;;;;27.98;34.09;101126.98;103098;1298;65632;-83
2023/09/09 10:52:00;;;;;;;4.40;2.40;;;;;;;27.99;34.15;101124.63;102861;1298;61444;-82
2023/09/09 10:54:26;;;;;;;3.30;2.00;;;;;;;27.99;33.97;101121.52;102821;1297;61422;-83
2023/09/09 10:56:55;;;;;;;3.60;2.00;;;;;;;27.99;34.04;101118.48;102897;1297;62097;-83
2023/09/09 10:59:24;;;;;;;3.50;2.20;;;;;;;27.99;34.02;101117.73;102689;1297;65677;-83
2023/09/09 11:02:08;;;;;;;;;;;;;;;27.99;34.07;101118.62;102780;1296;61330;-83
2023/09/09 11:04:36;;;;;;;3.60;2.10;;;;;;;27.97;34.05;101112.34;102798;1296;61275;-83
2023/09/09 11:07:08;;;;;;;3.90;2.30;;;;;;;27.97;34.09;101107.42;102829;1295;62810;-83
2023/09/09 11:09:35;;;;;;;3.30;1.80;;;;;;;27.97;34.06;101105.05;102642;1298;65826;-83
2023/09/09 11:12:14;;;;;;;4.30;2.30;;;;;;;27.97;34.11;101098.91;102709;1296;61421;-81
2023/09/09 11:14:47;;;;;;;3.10;2.00;;;;;;;27.97;33.93;101092.58;102688;1297;61327;-81